WetterOnline ( http://www.wetteronline.at )

Wetter aktuell Wernigerode

Aktuelles Wetter: Wernigerode (240m)

6-stündlich | Neueste Meldungen
Ortszeit Temperatur Wetter
Sa, 21.04. 2:00 13.3° C wolkig
Fr, 20.04. 20:00 22.2° C leicht bewölkt
Fr, 20.04. 14:00 25.4° C wolkig
Fr, 20.04. 8:00 16.9° C leicht bewölkt
Fr, 20.04. 2:00 12.5° C leicht bewölkt
Do, 19.04. 20:00 20.9° C leicht bewölkt
Do, 19.04. 14:00 23.4° C leicht bewölkt
Do, 19.04. 8:00 16.2° C wolkenlos
Ortszeit Temperatur Wetter
Sa, 21.04. 4:00 11.7° C bedeckt
Sa, 21.04. 3:40 12.2° C bedeckt
Sa, 21.04. 3:30 13.0° C bedeckt
Sa, 21.04. 3:20 13.0° C bedeckt
Sa, 21.04. 3:10 13.3° C bedeckt
Sa, 21.04. 3:00 13.1° C wolkig
Sa, 21.04. 2:50 13.1° C wolkig
Sa, 21.04. 2:30 12.5° C leicht bewölkt
Sa, 21.04. 2:00 13.3° C wolkig
Sa, 21.04. 1:30 13.4° C bedeckt
Sa, 21.04. 1:00 13.5° C leicht bewölkt
Ortszeit Relative Feuchte Sichtweite
Sa, 21.04. 2:00 79% 22 km
Fr, 20.04. 20:00 48% 35 km
Fr, 20.04. 14:00 35% 45 km
Fr, 20.04. 8:00 65% 17 km
Fr, 20.04. 2:00 78% 15 km
Do, 19.04. 20:00 46% 24 km
Do, 19.04. 14:00 45% 14 km
Do, 19.04. 8:00 63% 12 km
Ortszeit Relative Feuchte Sichtweite
Sa, 21.04. 4:00 86% 15 km
Sa, 21.04. 3:40 85% -
Sa, 21.04. 3:30 81% 18 km
Sa, 21.04. 3:20 81% -
Sa, 21.04. 3:10 81% -
Sa, 21.04. 3:00 84% 17 km
Sa, 21.04. 2:50 84% -
Sa, 21.04. 2:30 82% 16 km
Sa, 21.04. 2:00 79% 22 km
Sa, 21.04. 1:30 77% 22 km
Sa, 21.04. 1:00 77% 26 km
Ortszeit Niederschlagsmenge Niederschlagsart
Sa, 21.04. 2:00 0.0 l/m2 in 6 Std. -
Fr, 20.04. 20:00 0.0 l/m2 in 12 Std. -
Fr, 20.04. 14:00 0.0 l/m2 in 6 Std. -
Fr, 20.04. 8:00 0.0 l/m2 in 12 Std. -
Fr, 20.04. 2:00 0.0 l/m2 in 6 Std. -
Do, 19.04. 20:00 0.0 l/m2 in 12 Std. -
Do, 19.04. 14:00 0.0 l/m2 in 6 Std. -
Do, 19.04. 8:00 0.0 l/m2 in 12 Std. -
Ortszeit Niederschlagsmenge Niederschlagsart
Sa, 21.04. 4:00 0.0 l/m2 in 1 Std. -
Sa, 21.04. 3:40 keine Meldung -
Sa, 21.04. 3:30 0.0 l/m2 in 1 Std. -
Sa, 21.04. 3:20 keine Meldung -
Sa, 21.04. 3:10 keine Meldung -
Sa, 21.04. 3:00 0.0 l/m2 in 1 Std. -
Sa, 21.04. 2:50 keine Meldung -
Sa, 21.04. 2:30 0.0 l/m2 in 1 Std. -
Sa, 21.04. 2:00 0.0 l/m2 in 1 Std. -
Sa, 21.04. 1:30 0.0 l/m2 in 1 Std. -
Sa, 21.04. 1:00 0.0 l/m2 in 1 Std. -
Ortszeit Stärke Spitze Richtung
km/h Bft. km/h Grad Sektor
Sa, 21.04. 2:00 7 2 22 190° S
Fr, 20.04. 20:00 4 1 29 120° SO
Fr, 20.04. 14:00 7 2 25 30° NO
Fr, 20.04. 8:00 4 1 29 230° SW
Fr, 20.04. 2:00 6 1 19 120° SO
Do, 19.04. 20:00 7 2 33 110° O
Do, 19.04. 14:00 17 3 30 70° O
Do, 19.04. 8:00 7 2 14 150° SO
Ortszeit Stärke Spitze Richtung
km/h Bft. km/h Grad Sektor
Sa, 21.04. 4:00 6 1 9 170° S
Sa, 21.04. 3:40 4 1 - 170° S
Sa, 21.04. 3:30 6 1 9 150° SO
Sa, 21.04. 3:20 6 1 - 150° SO
Sa, 21.04. 3:10 6 1 - 160° S
Sa, 21.04. 3:00 4 1 11 220° SW
Sa, 21.04. 2:50 4 1 - 220° SW
Sa, 21.04. 2:30 4 1 7 150° SO
Sa, 21.04. 2:00 7 2 22 190° S
Sa, 21.04. 1:30 2 1 20 220° SW
Sa, 21.04. 1:00 7 2 11 170° S
Ortszeit Untergrenze Bedeckung Gattung
total tief tief mittel hoch
Sa, 21.04. 2:00 9000 m 7/8 0/8 - - -
Fr, 20.04. 20:00 10500 m 4/8 0/8 - - -
Fr, 20.04. 14:00 3300 m 6/8 - - - -
Fr, 20.04. 8:00 9000 m 8/8 0/8 - - -
Fr, 20.04. 2:00 10500 m 6/8 0/8 - - -
Do, 19.04. 20:00 9000 m 4/8 0/8 - - -
Do, 19.04. 14:00 10500 m 8/8 0/8 - - -
Do, 19.04. 8:00 12000 m 0/8 0/8 - - -
Ortszeit Bedeckungsgrad in Achtel und Wolkenuntergrenze
Sa, 21.04. 4:00 8
Sa, 21.04. 3:40 9 9 9
Sa, 21.04. 3:30 9 9 9
Sa, 21.04. 3:20 9 9 9
Sa, 21.04. 3:10 9 9 9
Sa, 21.04. 3:00 7(12000m) 7(12000m)
Sa, 21.04. 2:50 7(12000m)
Sa, 21.04. 2:30 1(2700m) 3(9000m) 5(12000m)
Sa, 21.04. 2:00 7(9000m) 7(12000m)
Sa, 21.04. 1:30 1(3300m) 5(9000m) 9(12000m)
Sa, 21.04. 1:00 4(10500m) 5(12000m)
Ortszeit Luftdruck NN (hPa) Tendenz (hPa in 3 Std.)
Sa, 21.04. 2:00 1021 - 0,2
Fr, 20.04. 20:00 1020 - 1,3
Fr, 20.04. 14:00 1022 - 0,9
Fr, 20.04. 8:00 1025 - 0,6
Fr, 20.04. 2:00 1027 - 1,2
Do, 19.04. 20:00 1028 - 0,7
Do, 19.04. 14:00 1029 - 1,0
Do, 19.04. 8:00 1031 - 0,2
Ortszeit Luftdruck NN (hPa) Tendenz (hPa in 3 Std.)
Sa, 21.04. 4:00 1020 - 0,2
Sa, 21.04. 3:40 1020 keine Meldung
Sa, 21.04. 3:30 1020 - 0,3
Sa, 21.04. 3:20 1020 keine Meldung
Sa, 21.04. 3:10 1020 keine Meldung
Sa, 21.04. 3:00 1020 - 0,2
Sa, 21.04. 2:50 1020 keine Meldung
Sa, 21.04. 2:30 1021 - 0,3
Sa, 21.04. 2:00 1021 - 0,2
Sa, 21.04. 1:30 1021 - 0,4
Sa, 21.04. 1:00 1020 - 0,5
Ortszeit Schneehöhe (cm)
Sa, 21.04. 2:00 0
Fr, 20.04. 20:00 0
Fr, 20.04. 14:00 0
Fr, 20.04. 8:00 0
Fr, 20.04. 2:00 0
Do, 19.04. 20:00 0
Do, 19.04. 14:00 0
Do, 19.04. 8:00 0
Ortszeit Schneehöhe (cm)
Sa, 21.04. 4:00 0
Sa, 21.04. 3:40 0
Sa, 21.04. 3:30 0
Sa, 21.04. 3:20 0
Sa, 21.04. 3:10 0
Sa, 21.04. 3:00 0
Sa, 21.04. 2:50 0
Sa, 21.04. 2:30 0
Sa, 21.04. 2:00 0
Sa, 21.04. 1:30 0
Sa, 21.04. 1:00 0
Link zu dieser Seite / Seite empfehlen

Das Wetter in ...